Country Park Acres, North Carolina
Current Conditions -  °F | °C
As of 10:54 PM on Thursday 20 Nov 2014 (Local Time) from KGSO Reporting Station
Clear Clear  
Wind Chill: 31°   Ceiling: Unl
Heat Index: 37°   Visibility: 10mi
Dew Point: 22°   Wind: 8mph
Humidity: 54%   Direction: 290°WNW
Pressure: 30.11"   Gusts: NA
Location:  36.1026°N, 79.8146°W
Report Text: KGSO 210354Z 29007KT 10SM CLR 03/M06 A3011 RMK AO2 SLP200 T00281056
Loading
Personal Weather Stations






























Interactive Weather Map New forecast layout! Learn more

10-Day Weather Forecast

Advertisements
Track Severe Weather on mobile